Time;durP1;ratioP1;P1;durP2;ratioP2;P2;SDS_P1;SDS_P2;PMS_P1;PMS_P2;Temp;Humidity;BMP_temperature;BMP_pressure;BME280_temperature;BME280_humidity;BME280_pressure;Samples;Min_cycle;Max_cycle;Signal;HPM_P1;HPM_P2
2023/08/14 00:01:22;;;;;;;25.40;8.10;;;;;;;;;;5013236;28;20026;-69
2023/08/14 00:03:48;;;;;;;20.75;7.07;;;;;;;;;;5012398;28;20145;-68
2023/08/14 00:06:15;;;;;;;14.88;5.25;;;;;;;;;;5012480;28;20099;-68
2023/08/14 00:08:42;;;;;;;15.30;6.03;;;;;;;;;;5012843;28;20884;-69
2023/08/14 00:11:08;;;;;;;22.50;8.95;;;;;;;;;;5012480;28;20082;-69
2023/08/14 00:13:47;;;;;;;21.27;6.70;;;;;;;;;;5013703;28;20041;-69
2023/08/14 00:16:13;;;;;;;15.43;6.10;;;;;;;;;;5013105;28;21852;-69
2023/08/14 00:18:38;;;;;;;14.95;5.70;;;;;;;;;;5011760;28;20084;-69
2023/08/14 00:21:06;;;;;;;15.05;4.40;;;;;;;;;;5012622;28;20041;-70
2023/08/14 00:23:31;;;;;;;11.52;4.03;;;;;;;;;;5012290;28;20041;-69
2023/08/14 00:25:56;;;;;;;13.35;5.57;;;;;;;;;;5010856;28;20033;-70
2023/08/14 00:28:24;;;;;;;16.58;6.18;;;;;;;;;;5012045;28;20029;-69
2023/08/14 00:30:49;;;;;;;15.40;5.22;;;;;;;;;;5012244;28;20033;-69
2023/08/14 00:33:15;;;;;;;20.45;5.38;;;;;;;;;;5041271;28;20533;-70
2023/08/14 00:35:43;;;;;;;15.30;5.15;;;;;;;;;;5043653;28;20056;-70
2023/08/14 00:38:08;;;;;;;12.63;5.15;;;;;;;;;;5014244;28;20029;-70
2023/08/14 00:40:36;;;;;;;15.02;4.95;;;;;;;;;;5017229;28;20041;-70
2023/08/14 00:43:02;;;;;;;12.90;4.13;;;;;;;;;;5010543;28;20556;-69
2023/08/14 00:45:29;;;;;;;14.70;4.90;;;;;;;;;;5012340;28;20052;-69
2023/08/14 00:47:57;;;;;;;13.70;4.72;;;;;;;;;;5010304;28;22413;-70
2023/08/14 00:50:23;;;;;;;15.38;4.88;;;;;;;;;;5011448;28;20044;-70
2023/08/14 00:52:50;;;;;;;9.18;4.00;;;;;;;;;;5008578;28;20030;-70
2023/08/14 00:55:17;;;;;;;12.18;3.88;;;;;;;;;;5011381;28;20045;-69
2023/08/14 00:57:42;;;;;;;13.55;4.20;;;;;;;;;;5012220;28;21174;-69
2023/08/14 01:00:11;;;;;;;12.02;4.90;;;;;;;;;;5009490;28;20517;-69
2023/08/14 01:02:37;;;;;;;14.57;5.30;;;;;;;;;;5013428;28;20162;-69
2023/08/14 01:05:02;;;;;;;14.20;6.25;;;;;;;;;;5012870;28;20033;-69
2023/08/14 01:07:29;;;;;;;11.73;4.95;;;;;;;;;;4996154;28;20100;-70
2023/08/14 01:09:57;;;;;;;20.83;7.25;;;;;;;;;;5012649;28;20439;-69
2023/08/14 01:12:28;;;;;;;10.60;4.80;;;;;;;;;;5012155;28;20442;-70
2023/08/14 01:15:04;;;;;;;10.63;4.40;;;;;;;;;;5013261;28;20134;-68
2023/08/14 01:17:31;;;;;;;12.52;4.55;;;;;;;;;;5041437;28;20036;-69
2023/08/14 01:19:57;;;;;;;13.60;4.88;;;;;;;;;;5012423;28;20056;-69
2023/08/14 01:22:25;;;;;;;16.23;4.75;;;;;;;;;;5011502;28;20098;-68
2023/08/14 01:25:03;;;;;;;14.13;4.20;;;;;;;;;;5010017;28;20049;-68
2023/08/14 01:27:28;;;;;;;15.02;4.40;;;;;;;;;;5011115;28;20037;-68
2023/08/14 01:30:00;;;;;;;21.50;6.10;;;;;;;;;;5044725;28;20051;-69
2023/08/14 01:32:27;;;;;;;14.25;4.60;;;;;;;;;;5011303;28;20720;-69
2023/08/14 01:34:54;;;;;;;18.00;7.32;;;;;;;;;;5010127;28;20041;-69
2023/08/14 01:37:24;;;;;;;21.95;6.82;;;;;;;;;;4991821;28;20433;-68
2023/08/14 01:40:02;;;;;;;17.58;5.57;;;;;;;;;;5030457;28;20573;-68
2023/08/14 01:42:32;;;;;;;26.38;8.30;;;;;;;;;;4996933;28;20464;-69
2023/08/14 01:45:00;;;;;;;37.15;12.93;;;;;;;;;;4994765;28;20083;-69
2023/08/14 01:47:27;;;;;;;40.08;13.68;;;;;;;;;;4994275;28;20517;-67
2023/08/14 01:49:53;;;;;;;38.75;13.88;;;;;;;;;;4992985;28;20041;-69
2023/08/14 01:52:21;;;;;;;43.60;14.35;;;;;;;;;;4993735;28;20045;-69
2023/08/14 01:54:46;;;;;;;32.13;11.02;;;;;;;;;;4992079;28;20254;-69
2023/08/14 01:57:18;;;;;;;32.95;11.43;;;;;;;;;;4993201;28;20042;-70
2023/08/14 01:59:45;;;;;;;33.40;11.73;;;;;;;;;;4993379;28;20567;-69
2023/08/14 02:02:13;;;;;;;43.15;14.80;;;;;;;;;;4990714;28;20379;-69
2023/08/14 02:04:38;;;;;;;43.83;14.63;;;;;;;;;;4994908;28;20167;-69
2023/08/14 02:07:05;;;;;;;41.40;13.48;;;;;;;;;;4994448;28;20034;-67
2023/08/14 02:09:31;;;;;;;24.08;6.97;;;;;;;;;;4994836;28;20219;-69
2023/08/14 02:11:56;;;;;;;17.48;5.80;;;;;;;;;;5007607;28;20212;-68
2023/08/14 02:14:24;;;;;;;21.05;6.63;;;;;;;;;;5016160;28;20043;-69
2023/08/14 02:16:49;;;;;;;22.58;8.13;;;;;;;;;;5012099;28;20078;-69
2023/08/14 02:19:14;;;;;;;16.23;5.10;;;;;;;;;;5013122;28;20055;-70
2023/08/14 02:21:40;;;;;;;11.52;4.45;;;;;;;;;;5014004;28;20056;-70
2023/08/14 02:24:08;;;;;;;17.17;5.43;;;;;;;;;;5015245;28;20509;-70
2023/08/14 02:26:36;;;;;;;16.10;5.60;;;;;;;;;;5019599;28;20048;-67
2023/08/14 02:29:01;;;;;;;16.83;4.78;;;;;;;;;;5014112;28;20033;-68
2023/08/14 02:31:26;;;;;;;11.80;4.18;;;;;;;;;;5027503;28;20033;-68
2023/08/14 02:33:56;;;;;;;13.20;4.65;;;;;;;;;;5012153;28;20037;-69
2023/08/14 02:36:21;;;;;;;17.45;5.80;;;;;;;;;;5014740;28;20041;-69
2023/08/14 02:38:49;;;;;;;18.38;6.03;;;;;;;;;;5012753;28;20040;-69
2023/08/14 02:41:17;;;;;;;18.77;5.70;;;;;;;;;;5015256;28;20041;-69
2023/08/14 02:43:47;;;;;;;19.48;7.30;;;;;;;;;;5010254;28;20074;-69
2023/08/14 02:46:12;;;;;;;17.83;6.50;;;;;;;;;;5019479;28;20089;-69
2023/08/14 02:48:38;;;;;;;15.40;5.22;;;;;;;;;;5010003;28;20402;-69
2023/08/14 02:51:03;;;;;;;16.05;5.10;;;;;;;;;;5010260;28;20417;-68
2023/08/14 02:53:31;;;;;;;14.73;5.05;;;;;;;;;;5011925;28;20142;-67
2023/08/14 02:55:56;;;;;;;17.58;5.07;;;;;;;;;;5011030;28;20366;-67
2023/08/14 02:58:21;;;;;;;13.40;4.35;;;;;;;;;;5012672;28;20079;-68
2023/08/14 03:00:49;;;;;;;18.42;5.63;;;;;;;;;;5013913;28;21830;-68
2023/08/14 03:03:17;;;;;;;13.05;5.47;;;;;;;;;;5013844;28;20037;-68
2023/08/14 03:05:42;;;;;;;17.27;5.00;;;;;;;;;;5045090;28;20210;-68
2023/08/14 03:08:08;;;;;;;13.98;4.82;;;;;;;;;;5013800;28;20481;-68
2023/08/14 03:10:36;;;;;;;16.05;4.68;;;;;;;;;;5011340;28;21413;-68
2023/08/14 03:13:04;;;;;;;11.55;4.25;;;;;;;;;;5013452;28;20160;-69
2023/08/14 03:15:29;;;;;;;12.57;4.80;;;;;;;;;;5012895;28;20052;-69
2023/08/14 03:17:57;;;;;;;12.65;5.30;;;;;;;;;;5014389;28;20521;-66
2023/08/14 03:20:22;;;;;;;13.90;5.30;;;;;;;;;;5044574;28;20045;-69
2023/08/14 03:22:50;;;;;;;13.77;5.10;;;;;;;;;;5041463;28;20489;-68
2023/08/14 03:25:15;;;;;;;16.00;6.50;;;;;;;;;;5014744;28;20298;-69
2023/08/14 03:27:42;;;;;;;15.02;5.35;;;;;;;;;;5009103;28;20037;-68
2023/08/14 03:30:12;;;;;;;10.70;4.70;;;;;;;;;;5013391;28;20134;-68
2023/08/14 03:32:40;;;;;;;14.48;4.30;;;;;;;;;;5009696;28;20079;-68
2023/08/14 03:35:05;;;;;;;14.85;5.05;;;;;;;;;;5011000;28;20045;-68
2023/08/14 03:37:31;;;;;;;17.77;6.57;;;;;;;;;;5013166;28;20159;-68
2023/08/14 03:39:56;;;;;;;21.92;7.60;;;;;;;;;;5042688;28;20033;-68
2023/08/14 03:42:21;;;;;;;25.13;8.38;;;;;;;;;;5008802;28;20288;-68
2023/08/14 03:44:46;;;;;;;20.15;5.93;;;;;;;;;;5012978;28;20068;-68
2023/08/14 03:47:12;;;;;;;15.82;5.40;;;;;;;;;;5014960;28;20033;-69
2023/08/14 03:49:37;;;;;;;18.85;5.10;;;;;;;;;;5016084;28;22186;-68
2023/08/14 03:52:03;;;;;;;12.35;5.00;;;;;;;;;;5011213;28;20467;-67
2023/08/14 03:54:33;;;;;;;13.23;4.82;;;;;;;;;;5018892;28;20341;-68
2023/08/14 03:56:58;;;;;;;13.80;4.70;;;;;;;;;;5011329;28;20036;-68
2023/08/14 03:59:23;;;;;;;11.75;4.80;;;;;;;;;;5015814;28;20036;-70
2023/08/14 04:01:49;;;;;;;13.45;5.47;;;;;;;;;;5008735;28;20087;-69
2023/08/14 04:04:14;;;;;;;20.33;5.32;;;;;;;;;;5009684;28;20037;-69
2023/08/14 04:06:44;;;;;;;16.65;4.90;;;;;;;;;;5015761;28;20037;-70
2023/08/14 04:09:09;;;;;;;18.77;5.63;;;;;;;;;;5011304;28;22879;-68
2023/08/14 04:11:34;;;;;;;15.73;5.60;;;;;;;;;;5028580;28;20094;-68
2023/08/14 04:14:02;;;;;;;17.70;6.10;;;;;;;;;;5010415;28;20265;-69
2023/08/14 04:16:41;;;;;;;24.20;8.30;;;;;;;;;;5044021;28;20049;-69
2023/08/14 04:19:11;;;;;;;19.95;6.93;;;;;;;;;;5028380;28;20072;-69
2023/08/14 04:21:40;;;;;;;13.75;4.57;;;;;;;;;;5011724;28;20049;-69
2023/08/14 04:24:05;;;;;;;16.67;5.22;;;;;;;;;;5010952;28;20037;-69
2023/08/14 04:26:34;;;;;;;12.77;4.55;;;;;;;;;;5009165;28;20052;-71
2023/08/14 04:28:59;;;;;;;12.68;4.97;;;;;;;;;;5013193;28;20037;-70
2023/08/14 04:31:24;;;;;;;14.23;5.03;;;;;;;;;;5011924;28;20503;-69
2023/08/14 04:33:52;;;;;;;14.52;4.05;;;;;;;;;;5011050;28;20350;-69
2023/08/14 04:36:20;;;;;;;13.00;4.75;;;;;;;;;;5019827;28;20429;-68
2023/08/14 04:38:45;;;;;;;16.10;5.90;;;;;;;;;;5011604;28;20042;-68
2023/08/14 04:41:10;;;;;;;19.70;5.70;;;;;;;;;;5018522;28;20033;-68
2023/08/14 04:43:38;;;;;;;15.38;4.82;;;;;;;;;;5006480;28;20448;-69
2023/08/14 04:46:08;;;;;;;12.82;4.43;;;;;;;;;;5012142;28;20114;-70
2023/08/14 04:48:38;;;;;;;24.40;7.18;;;;;;;;;;5016052;28;20040;-69
2023/08/14 04:51:08;;;;;;;21.70;6.90;;;;;;;;;;5011387;28;20040;-70
2023/08/14 04:53:36;;;;;;;21.75;6.28;;;;;;;;;;5011704;28;20036;-69
2023/08/14 04:56:01;;;;;;;30.20;7.78;;;;;;;;;;5010575;28;20072;-69
2023/08/14 04:58:26;;;;;;;36.65;10.88;;;;;;;;;;5012011;28;20375;-69
2023/08/14 05:00:52;;;;;;;33.15;10.50;;;;;;;;;;5012318;28;20057;-69
2023/08/14 05:03:17;;;;;;;27.55;9.50;;;;;;;;;;5044213;28;20041;-69
2023/08/14 05:05:45;;;;;;;20.23;7.35;;;;;;;;;;5010662;28;20402;-72
2023/08/14 05:08:11;;;;;;;28.50;9.10;;;;;;;;;;5014797;28;20028;-72
2023/08/14 05:10:36;;;;;;;30.98;9.18;;;;;;;;;;5014828;28;20033;-73
2023/08/14 05:13:01;;;;;;;22.05;7.88;;;;;;;;;;5045974;28;20516;-72
2023/08/14 05:15:29;;;;;;;27.75;8.70;;;;;;;;;;5018907;28;20041;-70
2023/08/14 05:17:54;;;;;;;22.77;7.93;;;;;;;;;;5049827;28;20884;-71
2023/08/14 05:20:22;;;;;;;19.52;6.57;;;;;;;;;;5017969;28;20052;-71
2023/08/14 05:22:47;;;;;;;20.13;7.07;;;;;;;;;;5014818;28;20505;-70
2023/08/14 05:25:13;;;;;;;26.90;8.40;;;;;;;;;;5016807;28;20038;-71
2023/08/14 05:27:38;;;;;;;20.20;6.88;;;;;;;;;;5016919;28;20679;-71
2023/08/14 05:30:05;;;;;;;22.08;8.20;;;;;;;;;;5016660;28;20769;-71
2023/08/14 05:32:30;;;;;;;22.77;8.57;;;;;;;;;;5018267;28;20039;-71
2023/08/14 05:34:55;;;;;;;18.45;7.70;;;;;;;;;;5018014;28;20052;-71
2023/08/14 05:37:21;;;;;;;22.63;7.80;;;;;;;;;;5012096;28;20945;-71
2023/08/14 05:39:46;;;;;;;22.98;8.35;;;;;;;;;;5014885;28;20029;-71
2023/08/14 05:42:11;;;;;;;23.42;7.70;;;;;;;;;;5014002;28;20086;-71
2023/08/14 05:44:36;;;;;;;22.42;7.57;;;;;;;;;;5022464;28;20060;-71
2023/08/14 05:47:02;;;;;;;23.02;8.02;;;;;;;;;;5017684;28;20033;-71
2023/08/14 05:49:27;;;;;;;26.33;7.88;;;;;;;;;;5015744;28;20059;-70
2023/08/14 05:51:52;;;;;;;29.73;8.52;;;;;;;;;;5016925;28;20663;-71
2023/08/14 05:54:20;;;;;;;19.45;6.22;;;;;;;;;;5016229;28;20068;-71
2023/08/14 05:56:46;;;;;;;15.00;4.75;;;;;;;;;;5014858;28;20038;-71
2023/08/14 05:59:11;;;;;;;18.15;6.70;;;;;;;;;;5017305;28;20030;-73
2023/08/14 06:01:36;;;;;;;22.10;7.50;;;;;;;;;;5016816;28;20120;-74
2023/08/14 06:04:05;;;;;;;20.13;6.53;;;;;;;;;;5048208;28;20035;-73
2023/08/14 06:06:30;;;;;;;28.83;6.90;;;;;;;;;;5015722;28;20035;-73
2023/08/14 06:08:56;;;;;;;24.30;7.60;;;;;;;;;;5014643;28;20037;-73
2023/08/14 06:11:21;;;;;;;25.08;8.68;;;;;;;;;;5006248;28;21855;-73
2023/08/14 06:13:46;;;;;;;29.35;8.93;;;;;;;;;;5016595;28;20028;-73
2023/08/14 06:16:12;;;;;;;22.10;8.27;;;;;;;;;;5022187;28;20045;-72
2023/08/14 06:18:37;;;;;;;28.92;9.18;;;;;;;;;;5017772;28;20033;-72
2023/08/14 06:21:02;;;;;;;26.60;9.77;;;;;;;;;;5017569;28;20633;-74
2023/08/14 06:23:28;;;;;;;26.33;8.40;;;;;;;;;;5017262;28;20040;-75
2023/08/14 06:25:53;;;;;;;25.17;9.57;;;;;;;;;;5017758;28;20095;-75
2023/08/14 06:28:20;;;;;;;19.30;6.75;;;;;;;;;;5023349;28;20083;-72
2023/08/14 06:30:46;;;;;;;20.20;7.72;;;;;;;;;;5023702;28;20052;-72
2023/08/14 06:33:14;;;;;;;22.98;8.90;;;;;;;;;;5011957;28;20158;-72
2023/08/14 06:35:39;;;;;;;23.30;8.85;;;;;;;;;;5008866;28;20084;-72
2023/08/14 06:38:04;;;;;;;17.40;6.15;;;;;;;;;;5015737;28;20033;-72
2023/08/14 06:40:30;;;;;;;16.67;5.13;;;;;;;;;;5008965;28;20471;-72
2023/08/14 06:42:55;;;;;;;19.80;5.30;;;;;;;;;;5012997;28;20065;-73
2023/08/14 06:45:21;;;;;;;14.25;4.93;;;;;;;;;;5013454;28;20029;-73
2023/08/14 06:47:47;;;;;;;12.10;4.72;;;;;;;;;;5008833;28;20037;-73
2023/08/14 06:50:12;;;;;;;14.20;5.18;;;;;;;;;;5011130;28;20051;-73
2023/08/14 06:52:38;;;;;;;13.10;4.40;;;;;;;;;;5008203;28;20175;-73
2023/08/14 06:55:03;;;;;;;13.90;5.00;;;;;;;;;;5006176;28;20294;-72
2023/08/14 06:57:28;;;;;;;13.82;4.53;;;;;;;;;;5011761;28;20038;-73
2023/08/14 06:59:54;;;;;;;14.38;5.50;;;;;;;;;;5016097;28;20595;-72
2023/08/14 07:02:19;;;;;;;22.20;9.05;;;;;;;;;;5008605;28;20044;-72
2023/08/14 07:04:44;;;;;;;21.52;7.65;;;;;;;;;;5011060;28;20040;-71
2023/08/14 07:07:10;;;;;;;17.58;7.15;;;;;;;;;;5009761;28;20083;-73
2023/08/14 07:09:35;;;;;;;17.85;6.35;;;;;;;;;;5006912;28;20394;-72
2023/08/14 07:12:00;;;;;;;24.42;7.53;;;;;;;;;;5007702;28;20457;-71
2023/08/14 07:14:25;;;;;;;13.93;5.20;;;;;;;;;;5013333;28;20042;-71
2023/08/14 07:16:51;;;;;;;16.17;5.65;;;;;;;;;;4998158;28;20037;-69
2023/08/14 07:19:17;;;;;;;12.52;4.47;;;;;;;;;;5002227;28;20048;-69
2023/08/14 07:21:45;;;;;;;8.43;2.88;;;;;;;;;;4994884;28;20588;-67
2023/08/14 07:24:12;;;;;;;6.35;2.50;;;;;;;;;;4995577;28;20034;-69
2023/08/14 07:26:37;;;;;;;4.13;1.60;;;;;;;;;;4997502;28;20064;-69
2023/08/14 07:29:03;;;;;;;5.50;1.90;;;;;;;;;;4986564;28;20037;-70
2023/08/14 07:31:29;;;;;;;6.38;2.00;;;;;;;;;;4997372;28;20109;-70
2023/08/14 07:33:57;;;;;;;4.72;2.00;;;;;;;;;;4995464;28;20040;-70
2023/08/14 07:36:22;;;;;;;8.38;2.80;;;;;;;;;;4991592;28;20049;-70
2023/08/14 07:38:48;;;;;;;9.13;2.58;;;;;;;;;;4994545;28;20121;-70
2023/08/14 07:41:13;;;;;;;6.72;2.45;;;;;;;;;;4994537;28;22466;-70
2023/08/14 07:43:38;;;;;;;5.95;2.05;;;;;;;;;;4998134;28;20033;-70
2023/08/14 07:46:04;;;;;;;7.35;1.75;;;;;;;;;;5010804;28;20658;-69
2023/08/14 07:48:29;;;;;;;7.80;1.50;;;;;;;;;;4999118;28;20038;-70
2023/08/14 07:50:54;;;;;;;5.22;1.60;;;;;;;;;;4997993;28;20553;-70
2023/08/14 07:53:20;;;;;;;6.80;1.52;;;;;;;;;;4998142;28;20038;-70
2023/08/14 07:55:48;;;;;;;6.68;1.58;;;;;;;;;;5022157;28;20048;-70
2023/08/14 07:58:13;;;;;;;5.43;1.80;;;;;;;;;;5015920;28;20109;-70
2023/08/14 08:00:39;;;;;;;7.25;1.70;;;;;;;;;;5014916;28;20129;-71
2023/08/14 08:03:04;;;;;;;7.40;1.90;;;;;;;;;;5046747;28;20068;-70
2023/08/14 08:05:31;;;;;;;9.32;1.85;;;;;;;;;;5014301;28;20115;-68
2023/08/14 08:07:56;;;;;;;5.45;1.60;;;;;;;;;;5011648;28;20662;-68
2023/08/14 08:10:21;;;;;;;7.95;1.60;;;;;;;;;;5017036;28;20033;-71
2023/08/14 08:12:47;;;;;;;6.28;1.75;;;;;;;;;;5014451;28;20044;-70
2023/08/14 08:15:12;;;;;;;5.22;1.55;;;;;;;;;;5015756;28;20724;-70
2023/08/14 08:17:37;;;;;;;5.70;1.50;;;;;;;;;;5016942;28;20044;-71
2023/08/14 08:20:05;;;;;;;10.27;1.80;;;;;;;;;;5018329;28;20049;-71
2023/08/14 08:22:31;;;;;;;8.60;1.80;;;;;;;;;;5014560;28;20627;-73
2023/08/14 08:24:56;;;;;;;9.48;2.15;;;;;;;;;;5020821;28;20049;-72
2023/08/14 08:27:21;;;;;;;6.55;2.33;;;;;;;;;;5014275;28;20346;-71
2023/08/14 08:29:47;;;;;;;6.82;2.40;;;;;;;;;;5014866;28;20818;-71
2023/08/14 08:32:12;;;;;;;7.65;2.38;;;;;;;;;;5014456;28;20090;-70
2023/08/14 08:34:40;;;;;;;8.82;3.40;;;;;;;;;;5016012;28;20634;-70
2023/08/14 08:37:06;;;;;;;8.75;3.42;;;;;;;;;;5016228;28;20509;-70
2023/08/14 08:39:31;;;;;;;10.55;3.30;;;;;;;;;;5044771;28;20031;-70
2023/08/14 08:41:56;;;;;;;5.45;2.10;;;;;;;;;;5015143;28;20033;-71
2023/08/14 08:44:25;;;;;;;7.60;2.20;;;;;;;;;;5012650;28;20044;-70
2023/08/14 08:46:51;;;;;;;8.85;2.63;;;;;;;;;;5045277;28;20039;-71
2023/08/14 08:49:19;;;;;;;7.22;2.05;;;;;;;;;;5019511;28;20064;-67
2023/08/14 08:51:45;;;;;;;7.57;2.42;;;;;;;;;;5018804;28;20061;-69
2023/08/14 08:54:16;;;;;;;8.68;2.83;;;;;;;;;;5020529;28;20067;-69
2023/08/14 08:56:42;;;;;;;7.60;2.55;;;;;;;;;;5050145;28;20045;-69
2023/08/14 08:59:12;;;;;;;7.20;2.50;;;;;;;;;;5019371;28;20043;-68
2023/08/14 09:01:38;;;;;;;10.48;2.88;;;;;;;;;;5018535;28;20212;-69
2023/08/14 09:04:04;;;;;;;8.23;2.80;;;;;;;;;;5016806;28;20038;-70
2023/08/14 09:06:29;;;;;;;6.20;2.55;;;;;;;;;;5017457;28;20382;-70
2023/08/14 09:08:55;;;;;;;6.78;2.13;;;;;;;;;;5017952;28;20056;-70
2023/08/14 09:11:21;;;;;;;7.47;3.10;;;;;;;;;;5020055;28;20037;-77
2023/08/14 09:13:46;;;;;;;8.77;3.15;;;;;;;;;;5020423;28;20045;-75
2023/08/14 09:16:15;;;;;;;6.53;2.85;;;;;;;;;;5036651;28;20804;-74
2023/08/14 09:18:44;;;;;;;7.38;2.67;;;;;;;;;;5022770;28;20044;-75
2023/08/14 09:21:13;;;;;;;6.43;2.03;;;;;;;;;;5019600;28;20044;-77
2023/08/14 09:23:39;;;;;;;4.57;1.70;;;;;;;;;;5050720;28;20034;-76
2023/08/14 09:26:04;;;;;;;4.32;1.52;;;;;;;;;;5018483;28;20049;-75
2023/08/14 09:28:30;;;;;;;5.78;1.83;;;;;;;;;;5019176;28;20110;-75
2023/08/14 09:31:09;;;;;;;9.50;2.00;;;;;;;;;;5024502;28;20163;-77
2023/08/14 09:33:42;;;;;;;6.97;1.60;;;;;;;;;;5020292;28;20045;-75
2023/08/14 09:36:08;;;;;;;8.07;2.55;;;;;;;;;;5020092;28;22282;-75
2023/08/14 09:38:33;;;;;;;9.35;2.10;;;;;;;;;;5023691;28;20037;-75
2023/08/14 09:41:01;;;;;;;7.13;2.42;;;;;;;;;;5031759;28;20616;-75
2023/08/14 09:43:28;;;;;;;7.20;1.95;;;;;;;;;;5025709;28;20033;-75
2023/08/14 09:45:55;;;;;;;10.02;2.00;;;;;;;;;;5023997;28;20037;-76
2023/08/14 09:48:38;;;;;;;7.35;1.80;;;;;;;;;;5024610;28;20041;-75
2023/08/14 09:51:03;;;;;;;4.53;1.63;;;;;;;;;;5038331;28;20414;-76
2023/08/14 09:53:29;;;;;;;5.22;1.80;;;;;;;;;;5028797;28;20041;-69
2023/08/14 09:55:54;;;;;;;6.35;2.10;;;;;;;;;;5021448;28;20688;-75
2023/08/14 09:58:20;;;;;;;5.97;2.22;;;;;;;;;;5022574;28;20041;-76
2023/08/14 10:00:46;;;;;;;6.85;2.00;;;;;;;;;;5035909;28;20036;-71
2023/08/14 10:03:12;;;;;;;5.82;1.75;;;;;;;;;;5049985;28;20078;-73
2023/08/14 10:05:37;;;;;;;7.05;2.00;;;;;;;;;;5031189;28;20844;-73
2023/08/14 10:08:04;;;;;;;9.88;2.20;;;;;;;;;;5030817;28;20476;-73
2023/08/14 10:10:30;;;;;;;9.18;2.22;;;;;;;;;;5023548;28;20658;-71
2023/08/14 10:13:04;;;;;;;7.03;1.85;;;;;;;;;;5041097;28;20598;-73
2023/08/14 10:15:34;;;;;;;6.78;2.00;;;;;;;;;;5039502;28;20050;-72
2023/08/14 10:18:01;;;;;;;6.32;2.08;;;;;;;;;;5039494;28;20037;-74
2023/08/14 10:20:31;;;;;;;6.00;1.92;;;;;;;;;;5030605;28;20060;-72
2023/08/14 10:22:56;;;;;;;7.90;1.85;;;;;;;;;;5032141;28;20167;-69
2023/08/14 10:25:22;;;;;;;6.32;1.75;;;;;;;;;;5032474;28;20532;-72
2023/08/14 10:27:48;;;;;;;15.27;4.53;;;;;;;;;;5029562;28;20064;-71
2023/08/14 10:30:13;;;;;;;14.05;3.85;;;;;;;;;;5051342;28;20474;-73
2023/08/14 10:32:39;;;;;;;9.90;2.13;;;;;;;;;;5026144;28;20053;-75
2023/08/14 10:35:04;;;;;;;7.03;1.70;;;;;;;;;;5018852;28;20569;-75
2023/08/14 10:37:40;;;;;;;5.30;1.80;;;;;;;;;;5040073;28;20044;-75
2023/08/14 10:40:16;;;;;;;6.65;1.90;;;;;;;;;;5000313;28;20647;-75
2023/08/14 10:42:50;;;;;;;7.93;1.52;;;;;;;;;;5019182;28;20034;-75
2023/08/14 10:45:18;;;;;;;7.00;1.80;;;;;;;;;;5019498;28;20067;-75
2023/08/14 10:47:44;;;;;;;8.95;2.05;;;;;;;;;;5021616;28;20111;-74
2023/08/14 10:50:19;;;;;;;9.43;2.35;;;;;;;;;;5020743;28;20449;-74
2023/08/14 10:52:50;;;;;;;6.13;1.90;;;;;;;;;;5027096;28;20060;-75
2023/08/14 10:55:16;;;;;;;4.60;1.80;;;;;;;;;;5009333;28;20063;-75
2023/08/14 10:57:44;;;;;;;3.90;1.70;;;;;;;;;;5023182;28;20063;-73
2023/08/14 11:00:27;;;;;;;13.80;4.47;;;;;;;;;;5024511;28;20042;-74
2023/08/14 11:03:04;;;;;;;17.83;5.57;;;;;;;;;;5034048;28;20649;-74
2023/08/14 11:05:36;;;;;;;11.98;3.38;;;;;;;;;;4999126;28;20044;-75
2023/08/14 11:08:01;;;;;;;9.88;3.10;;;;;;;;;;5000062;28;20427;-74
2023/08/14 11:10:27;;;;;;;11.23;3.33;;;;;;;;;;4999280;28;20061;-73
2023/08/14 11:12:53;;;;;;;6.47;1.88;;;;;;;;;;4996059;28;20107;-74
2023/08/14 11:15:21;;;;;;;6.05;2.10;;;;;;;;;;4997421;28;20084;-73
2023/08/14 11:17:48;;;;;;;5.68;2.35;;;;;;;;;;5002616;28;20196;-74
2023/08/14 11:20:13;;;;;;;8.68;2.08;;;;;;;;;;4998512;28;20485;-72
2023/08/14 11:22:42;;;;;;;9.48;3.15;;;;;;;;;;5024018;28;20573;-72
2023/08/14 11:25:14;;;;;;;8.25;2.95;;;;;;;;;;5019284;28;20041;-74
2023/08/14 11:27:39;;;;;;;12.32;3.40;;;;;;;;;;5018612;28;20048;-73
2023/08/14 11:30:05;;;;;;;12.25;3.40;;;;;;;;;;5024856;28;20041;-73
2023/08/14 11:32:30;;;;;;;9.70;2.78;;;;;;;;;;5017053;28;20116;-73
2023/08/14 11:34:56;;;;;;;8.23;2.45;;;;;;;;;;5020490;28;20056;-73
2023/08/14 11:37:21;;;;;;;14.60;5.55;;;;;;;;;;5019993;28;20036;-73
2023/08/14 11:39:46;;;;;;;9.23;3.10;;;;;;;;;;5020271;28;20233;-68
2023/08/14 11:42:12;;;;;;;7.45;2.15;;;;;;;;;;5049301;28;20037;-73
2023/08/14 11:44:37;;;;;;;7.72;2.15;;;;;;;;;;5018726;28;20040;-71
2023/08/14 11:47:04;;;;;;;9.85;3.00;;;;;;;;;;5017967;28;20040;-73
2023/08/14 11:49:30;;;;;;;9.65;3.10;;;;;;;;;;5019194;28;20076;-74
2023/08/14 11:51:56;;;;;;;11.40;3.17;;;;;;;;;;5021755;28;20057;-73
2023/08/14 11:54:21;;;;;;;6.13;1.70;;;;;;;;;;5017244;28;20032;-73
2023/08/14 11:56:47;;;;;;;4.82;1.80;;;;;;;;;;5020247;28;20060;-74
2023/08/14 11:59:12;;;;;;;6.53;1.40;;;;;;;;;;5019731;28;20045;-73
2023/08/14 12:01:38;;;;;;;7.47;1.90;;;;;;;;;;5022462;28;20057;-75
2023/08/14 12:04:06;;;;;;;6.18;1.55;;;;;;;;;;5026019;28;20033;-73
2023/08/14 12:06:32;;;;;;;5.40;1.73;;;;;;;;;;5019099;28;22214;-75
2023/08/14 12:08:57;;;;;;;5.95;1.48;;;;;;;;;;5023900;28;20033;-73
2023/08/14 12:11:22;;;;;;;8.20;2.08;;;;;;;;;;5046540;28;20532;-73
2023/08/14 12:13:49;;;;;;;4.20;1.40;;;;;;;;;;5025368;28;20117;-75
2023/08/14 12:16:15;;;;;;;4.85;1.60;;;;;;;;;;5016787;28;20049;-73
2023/08/14 12:18:41;;;;;;;7.28;1.55;;;;;;;;;;5020564;28;20048;-74
2023/08/14 12:21:13;;;;;;;6.25;1.70;;;;;;;;;;5033196;28;20497;-72
2023/08/14 12:23:48;;;;;;;4.13;1.55;;;;;;;;;;5015429;28;20512;-74
2023/08/14 12:26:14;;;;;;;7.35;1.45;;;;;;;;;;5045351;28;20045;-71
2023/08/14 12:28:40;;;;;;;6.60;1.50;;;;;;;;;;5011989;28;20034;-67
2023/08/14 12:31:06;;;;;;;5.63;1.48;;;;;;;;;;5012916;28;20086;-69
2023/08/14 12:33:31;;;;;;;5.00;1.65;;;;;;;;;;5013324;28;20037;-71
2023/08/14 12:35:56;;;;;;;6.70;1.40;;;;;;;;;;5013756;28;20045;-70
2023/08/14 12:38:22;;;;;;;4.40;1.52;;;;;;;;;;5014733;28;20131;-72
2023/08/14 12:40:47;;;;;;;9.95;1.77;;;;;;;;;;5011939;28;20041;-70
2023/08/14 12:43:12;;;;;;;4.43;1.30;;;;;;;;;;5014842;28;20041;-72
2023/08/14 12:45:38;;;;;;;6.65;1.95;;;;;;;;;;5015691;28;20358;-69
2023/08/14 12:48:03;;;;;;;9.13;1.65;;;;;;;;;;5017812;28;20033;-71
2023/08/14 12:50:29;;;;;;;5.95;1.60;;;;;;;;;;5018196;28;20099;-69
2023/08/14 12:52:54;;;;;;;5.10;1.55;;;;;;;;;;5016060;28;20257;-70
2023/08/14 12:55:20;;;;;;;5.10;1.50;;;;;;;;;;5014441;28;20048;-72
2023/08/14 12:57:47;;;;;;;6.88;1.48;;;;;;;;;;5029485;28;20026;-69
2023/08/14 13:00:13;;;;;;;7.15;1.67;;;;;;;;;;5013630;28;20064;-70
2023/08/14 13:02:40;;;;;;;5.93;1.60;;;;;;;;;;5017855;28;20029;-71
2023/08/14 13:05:10;;;;;;;5.28;1.52;;;;;;;;;;5014005;28;20203;-71
2023/08/14 13:07:36;;;;;;;6.72;1.52;;;;;;;;;;5014325;28;20091;-70
2023/08/14 13:10:01;;;;;;;5.00;1.70;;;;;;;;;;5016312;28;20113;-71
2023/08/14 13:12:26;;;;;;;4.43;1.50;;;;;;;;;;5016077;28;20331;-69
2023/08/14 13:14:51;;;;;;;6.85;1.73;;;;;;;;;;5016279;28;20106;-69
2023/08/14 13:17:19;;;;;;;5.15;1.60;;;;;;;;;;5001464;28;20033;-67
2023/08/14 13:19:45;;;;;;;6.40;1.80;;;;;;;;;;5020135;28;20363;-69
2023/08/14 13:22:12;;;;;;;7.68;1.70;;;;;;;;;;5017112;28;20052;-70
2023/08/14 13:24:38;;;;;;;5.53;1.70;;;;;;;;;;5020061;28;20044;-69
2023/08/14 13:27:03;;;;;;;6.40;1.90;;;;;;;;;;5012984;28;20033;-70
2023/08/14 13:29:28;;;;;;;6.93;1.73;;;;;;;;;;5015944;28;20026;-71
2023/08/14 13:31:54;;;;;;;7.70;1.92;;;;;;;;;;5013771;28;20034;-71
2023/08/14 13:34:19;;;;;;;5.35;1.55;;;;;;;;;;5020299;28;20046;-71
2023/08/14 13:36:46;;;;;;;6.05;1.67;;;;;;;;;;5004646;28;20327;-70
2023/08/14 13:39:12;;;;;;;5.25;1.75;;;;;;;;;;5019044;28;20745;-74
2023/08/14 13:41:37;;;;;;;6.97;1.50;;;;;;;;;;5034281;28;20175;-73
2023/08/14 13:44:02;;;;;;;4.95;1.63;;;;;;;;;;5028242;28;20066;-74
2023/08/14 13:46:28;;;;;;;6.90;1.92;;;;;;;;;;5029284;28;20037;-71
2023/08/14 13:48:53;;;;;;;7.38;1.88;;;;;;;;;;5026644;28;20037;-73
2023/08/14 13:51:18;;;;;;;6.32;1.90;;;;;;;;;;5065013;28;20067;-73
2023/08/14 13:53:44;;;;;;;5.95;1.40;;;;;;;;;;5029627;28;20050;-73
2023/08/14 13:56:09;;;;;;;7.10;1.98;;;;;;;;;;5035271;28;20094;-74
2023/08/14 13:58:34;;;;;;;5.15;1.80;;;;;;;;;;5029923;28;20037;-73
2023/08/14 14:01:00;;;;;;;6.72;1.88;;;;;;;;;;5036036;28;20164;-73
2023/08/14 14:03:27;;;;;;;5.68;1.70;;;;;;;;;;5027406;28;20076;-72
2023/08/14 14:05:53;;;;;;;10.60;2.15;;;;;;;;;;5046552;27;20129;-72
2023/08/14 14:08:18;;;;;;;4.93;1.60;;;;;;;;;;5041873;28;20029;-73
2023/08/14 14:10:43;;;;;;;5.85;2.10;;;;;;;;;;5038612;28;20033;-71
2023/08/14 14:13:09;;;;;;;8.82;2.30;;;;;;;;;;5032186;28;20037;-71
2023/08/14 14:15:34;;;;;;;5.85;2.05;;;;;;;;;;5033346;28;20048;-73
2023/08/14 14:17:59;;;;;;;7.80;2.10;;;;;;;;;;5037415;28;20440;-74
2023/08/14 14:20:25;;;;;;;5.57;1.95;;;;;;;;;;5038560;28;20113;-72
2023/08/14 14:22:50;;;;;;;5.57;2.00;;;;;;;;;;5039039;28;20044;-72
2023/08/14 14:25:15;;;;;;;7.80;2.08;;;;;;;;;;5028879;28;20040;-74
2023/08/14 14:27:41;;;;;;;6.43;1.90;;;;;;;;;;5040126;28;20043;-74
2023/08/14 14:30:06;;;;;;;6.78;2.33;;;;;;;;;;5029015;28;20040;-73
2023/08/14 14:32:32;;;;;;;7.82;2.38;;;;;;;;;;5029087;28;20663;-72